sensor_id;sensor_type;location;lat;lon;timestamp;P1;durP1;ratioP1;P2;durP2;ratioP2
36391;SDS011;22639;42.690;23.356;2022-07-12T00:01:53;5.07;;;4.60;;
36391;SDS011;22639;42.690;23.356;2022-07-12T00:04:18;4.07;;;3.77;;
36391;SDS011;22639;42.690;23.356;2022-07-12T00:06:44;5.10;;;4.27;;
36391;SDS011;22639;42.690;23.356;2022-07-12T00:09:10;4.10;;;3.80;;
36391;SDS011;22639;42.690;23.356;2022-07-12T00:11:35;5.07;;;4.23;;
36391;SDS011;22639;42.690;23.356;2022-07-12T00:14:02;4.10;;;3.80;;
36391;SDS011;22639;42.690;23.356;2022-07-12T00:16:27;4.83;;;4.37;;
36391;SDS011;22639;42.690;23.356;2022-07-12T00:18:53;4.57;;;4.17;;
36391;SDS011;22639;42.690;23.356;2022-07-12T00:21:19;4.50;;;4.10;;
36391;SDS011;22639;42.690;23.356;2022-07-12T00:23:44;4.00;;;3.70;;
36391;SDS011;22639;42.690;23.356;2022-07-12T00:26:10;4.60;;;4.20;;
36391;SDS011;22639;42.690;23.356;2022-07-12T00:28:35;4.53;;;4.13;;
36391;SDS011;22639;42.690;23.356;2022-07-12T00:31:01;4.27;;;3.80;;
36391;SDS011;22639;42.690;23.356;2022-07-12T00:33:26;4.30;;;3.90;;
36391;SDS011;22639;42.690;23.356;2022-07-12T00:35:52;6.40;;;4.23;;
36391;SDS011;22639;42.690;23.356;2022-07-12T00:38:18;4.27;;;3.97;;
36391;SDS011;22639;42.690;23.356;2022-07-12T00:40:43;4.30;;;3.90;;
36391;SDS011;22639;42.690;23.356;2022-07-12T00:43:09;4.67;;;4.27;;
36391;SDS011;22639;42.690;23.356;2022-07-12T00:45:34;5.27;;;4.57;;
36391;SDS011;22639;42.690;23.356;2022-07-12T00:48:00;4.27;;;3.90;;
36391;SDS011;22639;42.690;23.356;2022-07-12T00:50:26;4.73;;;4.33;;
36391;SDS011;22639;42.690;23.356;2022-07-12T00:52:52;4.87;;;4.10;;
36391;SDS011;22639;42.690;23.356;2022-07-12T00:55:19;6.13;;;4.60;;
36391;SDS011;22639;42.690;23.356;2022-07-12T00:57:46;4.27;;;3.87;;
36391;SDS011;22639;42.690;23.356;2022-07-12T01:00:14;4.10;;;3.80;;
36391;SDS011;22639;42.690;23.356;2022-07-12T01:02:41;4.70;;;4.30;;
36391;SDS011;22639;42.690;23.356;2022-07-12T01:05:07;5.50;;;4.47;;
36391;SDS011;22639;42.690;23.356;2022-07-12T01:07:34;4.10;;;3.80;;
36391;SDS011;22639;42.690;23.356;2022-07-12T01:10:00;4.23;;;3.83;;
36391;SDS011;22639;42.690;23.356;2022-07-12T01:12:28;4.47;;;4.07;;
36391;SDS011;22639;42.690;23.356;2022-07-12T01:14:54;5.30;;;4.83;;
36391;SDS011;22639;42.690;23.356;2022-07-12T01:17:21;4.63;;;4.27;;
36391;SDS011;22639;42.690;23.356;2022-07-12T01:19:48;4.83;;;4.43;;
36391;SDS011;22639;42.690;23.356;2022-07-12T01:22:14;6.20;;;4.90;;
36391;SDS011;22639;42.690;23.356;2022-07-12T01:24:42;4.70;;;4.30;;
36391;SDS011;22639;42.690;23.356;2022-07-12T01:27:08;4.93;;;4.53;;
36391;SDS011;22639;42.690;23.356;2022-07-12T01:29:34;5.47;;;4.23;;
36391;SDS011;22639;42.690;23.356;2022-07-12T01:32:00;5.97;;;5.47;;
36391;SDS011;22639;42.690;23.356;2022-07-12T01:34:47;5.60;;;5.10;;
36391;SDS011;22639;42.690;23.356;2022-07-12T01:37:14;6.33;;;5.73;;
36391;SDS011;22639;42.690;23.356;2022-07-12T01:39:40;5.90;;;5.30;;
36391;SDS011;22639;42.690;23.356;2022-07-12T01:42:07;7.83;;;5.57;;
36391;SDS011;22639;42.690;23.356;2022-07-12T01:44:32;7.07;;;5.40;;
36391;SDS011;22639;42.690;23.356;2022-07-12T01:46:58;8.07;;;5.50;;
36391;SDS011;22639;42.690;23.356;2022-07-12T01:49:24;6.53;;;5.73;;
36391;SDS011;22639;42.690;23.356;2022-07-12T01:51:49;6.37;;;5.73;;
36391;SDS011;22639;42.690;23.356;2022-07-12T01:54:15;6.30;;;5.70;;
36391;SDS011;22639;42.690;23.356;2022-07-12T01:56:40;6.83;;;6.17;;
36391;SDS011;22639;42.690;23.356;2022-07-12T01:59:06;7.73;;;6.50;;
36391;SDS011;22639;42.690;23.356;2022-07-12T02:01:32;5.90;;;5.40;;
36391;SDS011;22639;42.690;23.356;2022-07-12T02:04:04;5.40;;;4.90;;
36391;SDS011;22639;42.690;23.356;2022-07-12T02:06:30;6.10;;;5.50;;
36391;SDS011;22639;42.690;23.356;2022-07-12T02:08:56;6.47;;;5.60;;
36391;SDS011;22639;42.690;23.356;2022-07-12T02:11:21;6.10;;;5.50;;
36391;SDS011;22639;42.690;23.356;2022-07-12T02:13:47;6.13;;;5.50;;
36391;SDS011;22639;42.690;23.356;2022-07-12T02:16:12;8.90;;;5.73;;
36391;SDS011;22639;42.690;23.356;2022-07-12T02:18:38;5.67;;;5.17;;
36391;SDS011;22639;42.690;23.356;2022-07-12T02:21:03;5.80;;;5.27;;
36391;SDS011;22639;42.690;23.356;2022-07-12T02:23:29;6.10;;;5.60;;
36391;SDS011;22639;42.690;23.356;2022-07-12T02:25:54;5.83;;;5.33;;
36391;SDS011;22639;42.690;23.356;2022-07-12T02:28:20;7.63;;;5.07;;
36391;SDS011;22639;42.690;23.356;2022-07-12T02:30:45;6.90;;;5.50;;
36391;SDS011;22639;42.690;23.356;2022-07-12T02:33:12;5.23;;;4.83;;
36391;SDS011;22639;42.690;23.356;2022-07-12T02:35:40;6.47;;;5.87;;
36391;SDS011;22639;42.690;23.356;2022-07-12T02:38:06;6.17;;;5.40;;
36391;SDS011;22639;42.690;23.356;2022-07-12T02:40:32;5.73;;;5.30;;
36391;SDS011;22639;42.690;23.356;2022-07-12T02:43:16;6.87;;;5.97;;
36391;SDS011;22639;42.690;23.356;2022-07-12T02:45:41;5.93;;;5.33;;
36391;SDS011;22639;42.690;23.356;2022-07-12T02:48:07;6.13;;;4.83;;
36391;SDS011;22639;42.690;23.356;2022-07-12T02:50:32;10.10;;;5.23;;
36391;SDS011;22639;42.690;23.356;2022-07-12T02:52:58;5.23;;;4.60;;
36391;SDS011;22639;42.690;23.356;2022-07-12T02:55:23;7.53;;;5.80;;
36391;SDS011;22639;42.690;23.356;2022-07-12T02:57:48;5.50;;;5.00;;
36391;SDS011;22639;42.690;23.356;2022-07-12T03:00:14;5.97;;;5.40;;
36391;SDS011;22639;42.690;23.356;2022-07-12T03:02:39;6.47;;;4.77;;
36391;SDS011;22639;42.690;23.356;2022-07-12T03:05:05;5.80;;;5.20;;
36391;SDS011;22639;42.690;23.356;2022-07-12T03:07:31;6.63;;;4.60;;
36391;SDS011;22639;42.690;23.356;2022-07-12T03:09:56;9.30;;;4.63;;
36391;SDS011;22639;42.690;23.356;2022-07-12T03:12:22;6.13;;;4.87;;
36391;SDS011;22639;42.690;23.356;2022-07-12T03:14:47;5.40;;;4.90;;
36391;SDS011;22639;42.690;23.356;2022-07-12T03:17:13;5.07;;;4.30;;
36391;SDS011;22639;42.690;23.356;2022-07-12T03:19:38;5.37;;;4.87;;
36391;SDS011;22639;42.690;23.356;2022-07-12T03:22:04;5.87;;;5.13;;
36391;SDS011;22639;42.690;23.356;2022-07-12T03:24:30;5.93;;;5.33;;
36391;SDS011;22639;42.690;23.356;2022-07-12T03:26:55;6.80;;;5.77;;
36391;SDS011;22639;42.690;23.356;2022-07-12T03:29:21;6.33;;;5.83;;
36391;SDS011;22639;42.690;23.356;2022-07-12T03:31:46;7.13;;;6.43;;
36391;SDS011;22639;42.690;23.356;2022-07-12T03:34:12;9.27;;;5.80;;
36391;SDS011;22639;42.690;23.356;2022-07-12T03:36:37;7.37;;;6.43;;
36391;SDS011;22639;42.690;23.356;2022-07-12T03:39:02;7.50;;;6.30;;
36391;SDS011;22639;42.690;23.356;2022-07-12T03:41:28;8.87;;;6.90;;
36391;SDS011;22639;42.690;23.356;2022-07-12T03:43:53;7.50;;;6.63;;
36391;SDS011;22639;42.690;23.356;2022-07-12T03:46:19;8.33;;;7.53;;
36391;SDS011;22639;42.690;23.356;2022-07-12T03:48:44;6.10;;;5.57;;
36391;SDS011;22639;42.690;23.356;2022-07-12T03:51:10;6.63;;;6.03;;
36391;SDS011;22639;42.690;23.356;2022-07-12T03:53:35;5.80;;;5.30;;
36391;SDS011;22639;42.690;23.356;2022-07-12T03:56:00;5.00;;;4.50;;
36391;SDS011;22639;42.690;23.356;2022-07-12T03:58:26;5.37;;;4.87;;
36391;SDS011;22639;42.690;23.356;2022-07-12T04:00:51;5.50;;;5.10;;
36391;SDS011;22639;42.690;23.356;2022-07-12T04:03:17;5.53;;;4.83;;
36391;SDS011;22639;42.690;23.356;2022-07-12T04:05:42;6.83;;;5.93;;
36391;SDS011;22639;42.690;23.356;2022-07-12T04:08:08;6.30;;;5.80;;
36391;SDS011;22639;42.690;23.356;2022-07-12T04:10:33;6.13;;;5.63;;
36391;SDS011;22639;42.690;23.356;2022-07-12T04:12:59;5.95;;;5.38;;
36391;SDS011;22639;42.690;23.356;2022-07-12T04:15:24;5.35;;;4.55;;
36391;SDS011;22639;42.690;23.356;2022-07-12T04:17:50;5.95;;;4.82;;
36391;SDS011;22639;42.690;23.356;2022-07-12T04:20:15;4.30;;;3.88;;
36391;SDS011;22639;42.690;23.356;2022-07-12T04:22:40;3.88;;;3.58;;
36391;SDS011;22639;42.690;23.356;2022-07-12T04:25:06;4.85;;;4.45;;
36391;SDS011;22639;42.690;23.356;2022-07-12T04:27:32;5.40;;;3.78;;
36391;SDS011;22639;42.690;23.356;2022-07-12T04:29:58;3.30;;;2.75;;
36391;SDS011;22639;42.690;23.356;2022-07-12T04:32:23;5.78;;;3.38;;
36391;SDS011;22639;42.690;23.356;2022-07-12T04:34:49;4.65;;;3.78;;
36391;SDS011;22639;42.690;23.356;2022-07-12T04:37:14;4.90;;;4.50;;
36391;SDS011;22639;42.690;23.356;2022-07-12T04:39:39;4.88;;;3.70;;
36391;SDS011;22639;42.690;23.356;2022-07-12T04:42:05;4.70;;;4.28;;
36391;SDS011;22639;42.690;23.356;2022-07-12T04:44:30;5.45;;;3.63;;
36391;SDS011;22639;42.690;23.356;2022-07-12T04:46:56;5.55;;;3.47;;
36391;SDS011;22639;42.690;23.356;2022-07-12T04:49:21;5.80;;;4.20;;
36391;SDS011;22639;42.690;23.356;2022-07-12T04:51:46;3.90;;;3.58;;
36391;SDS011;22639;42.690;23.356;2022-07-12T04:54:12;3.38;;;3.13;;
36391;SDS011;22639;42.690;23.356;2022-07-12T04:56:37;2.88;;;2.60;;
36391;SDS011;22639;42.690;23.356;2022-07-12T04:59:03;3.13;;;2.75;;
36391;SDS011;22639;42.690;23.356;2022-07-12T05:01:29;4.85;;;3.05;;
36391;SDS011;22639;42.690;23.356;2022-07-12T05:03:55;5.65;;;3.50;;
36391;SDS011;22639;42.690;23.356;2022-07-12T05:06:20;3.78;;;3.20;;
36391;SDS011;22639;42.690;23.356;2022-07-12T05:08:47;4.25;;;3.85;;
36391;SDS011;22639;42.690;23.356;2022-07-12T05:11:13;3.70;;;3.40;;
36391;SDS011;22639;42.690;23.356;2022-07-12T05:13:38;4.32;;;3.85;;
36391;SDS011;22639;42.690;23.356;2022-07-12T05:16:05;3.75;;;3.45;;
36391;SDS011;22639;42.690;23.356;2022-07-12T05:18:32;3.75;;;3.35;;
36391;SDS011;22639;42.690;23.356;2022-07-12T05:20:58;3.97;;;3.58;;
36391;SDS011;22639;42.690;23.356;2022-07-12T05:23:23;3.83;;;3.50;;
36391;SDS011;22639;42.690;23.356;2022-07-12T05:25:49;7.28;;;3.50;;
36391;SDS011;22639;42.690;23.356;2022-07-12T05:28:15;5.65;;;3.90;;
36391;SDS011;22639;42.690;23.356;2022-07-12T05:30:41;4.35;;;4.00;;
36391;SDS011;22639;42.690;23.356;2022-07-12T05:33:07;4.80;;;3.88;;
36391;SDS011;22639;42.690;23.356;2022-07-12T05:35:33;4.32;;;3.50;;
36391;SDS011;22639;42.690;23.356;2022-07-12T05:37:58;4.97;;;3.53;;
36391;SDS011;22639;42.690;23.356;2022-07-12T05:40:24;3.58;;;3.25;;
36391;SDS011;22639;42.690;23.356;2022-07-12T05:42:49;4.47;;;3.53;;
36391;SDS011;22639;42.690;23.356;2022-07-12T05:45:16;3.78;;;3.38;;
36391;SDS011;22639;42.690;23.356;2022-07-12T05:47:42;8.18;;;3.08;;
36391;SDS011;22639;42.690;23.356;2022-07-12T05:50:07;6.05;;;4.40;;
36391;SDS011;22639;42.690;23.356;2022-07-12T05:52:33;4.38;;;3.97;;
36391;SDS011;22639;42.690;23.356;2022-07-12T05:55:18;3.72;;;3.42;;
36391;SDS011;22639;42.690;23.356;2022-07-12T05:57:43;4.78;;;3.60;;
36391;SDS011;22639;42.690;23.356;2022-07-12T06:00:09;6.88;;;3.58;;
36391;SDS011;22639;42.690;23.356;2022-07-12T06:02:35;7.60;;;3.65;;
36391;SDS011;22639;42.690;23.356;2022-07-12T06:05:00;5.45;;;3.60;;
36391;SDS011;22639;42.690;23.356;2022-07-12T06:07:26;3.40;;;3.10;;
36391;SDS011;22639;42.690;23.356;2022-07-12T06:09:52;4.95;;;3.20;;
36391;SDS011;22639;42.690;23.356;2022-07-12T06:12:17;4.22;;;3.70;;
36391;SDS011;22639;42.690;23.356;2022-07-12T06:14:43;4.45;;;4.05;;
36391;SDS011;22639;42.690;23.356;2022-07-12T06:17:08;4.90;;;3.43;;
36391;SDS011;22639;42.690;23.356;2022-07-12T06:19:34;5.65;;;3.58;;
36391;SDS011;22639;42.690;23.356;2022-07-12T06:22:00;3.70;;;2.67;;
36391;SDS011;22639;42.690;23.356;2022-07-12T06:24:26;5.70;;;3.05;;
36391;SDS011;22639;42.690;23.356;2022-07-12T06:26:51;3.15;;;2.80;;
36391;SDS011;22639;42.690;23.356;2022-07-12T06:29:17;4.30;;;2.90;;
36391;SDS011;22639;42.690;23.356;2022-07-12T06:31:42;6.40;;;2.67;;
36391;SDS011;22639;42.690;23.356;2022-07-12T06:34:07;4.32;;;2.80;;
36391;SDS011;22639;42.690;23.356;2022-07-12T06:36:33;3.38;;;2.55;;
36391;SDS011;22639;42.690;23.356;2022-07-12T06:39:00;2.50;;;2.30;;
36391;SDS011;22639;42.690;23.356;2022-07-12T06:41:25;2.90;;;2.10;;
36391;SDS011;22639;42.690;23.356;2022-07-12T06:43:50;3.30;;;2.40;;
36391;SDS011;22639;42.690;23.356;2022-07-12T06:46:16;2.60;;;2.13;;
36391;SDS011;22639;42.690;23.356;2022-07-12T06:48:41;3.85;;;3.08;;
36391;SDS011;22639;42.690;23.356;2022-07-12T06:51:07;3.30;;;2.33;;
36391;SDS011;22639;42.690;23.356;2022-07-12T06:53:32;2.60;;;2.40;;
36391;SDS011;22639;42.690;23.356;2022-07-12T06:55:58;5.43;;;2.22;;
36391;SDS011;22639;42.690;23.356;2022-07-12T06:58:23;3.08;;;2.70;;
36391;SDS011;22639;42.690;23.356;2022-07-12T07:00:49;4.97;;;2.50;;
36391;SDS011;22639;42.690;23.356;2022-07-12T07:03:14;2.70;;;1.90;;
36391;SDS011;22639;42.690;23.356;2022-07-12T07:05:40;2.65;;;1.90;;
36391;SDS011;22639;42.690;23.356;2022-07-12T07:08:06;2.13;;;1.92;;
36391;SDS011;22639;42.690;23.356;2022-07-12T07:10:32;3.63;;;1.60;;
36391;SDS011;22639;42.690;23.356;2022-07-12T07:12:58;1.77;;;1.50;;
36391;SDS011;22639;42.690;23.356;2022-07-12T07:15:25;2.40;;;1.42;;
36391;SDS011;22639;42.690;23.356;2022-07-12T07:17:51;1.70;;;1.60;;
36391;SDS011;22639;42.690;23.356;2022-07-12T07:20:17;5.45;;;1.83;;
36391;SDS011;22639;42.690;23.356;2022-07-12T07:22:43;1.58;;;1.48;;
36391;SDS011;22639;42.690;23.356;2022-07-12T07:25:08;1.63;;;1.27;;
36391;SDS011;22639;42.690;23.356;2022-07-12T07:27:34;2.05;;;1.80;;
36391;SDS011;22639;42.690;23.356;2022-07-12T07:29:59;2.33;;;1.95;;
36391;SDS011;22639;42.690;23.356;2022-07-12T07:32:43;2.47;;;1.52;;
36391;SDS011;22639;42.690;23.356;2022-07-12T07:35:10;1.75;;;1.30;;
36391;SDS011;22639;42.690;23.356;2022-07-12T07:37:36;1.10;;;1.00;;
36391;SDS011;22639;42.690;23.356;2022-07-12T07:40:01;1.85;;;0.90;;
36391;SDS011;22639;42.690;23.356;2022-07-12T07:42:27;2.22;;;1.55;;
36391;SDS011;22639;42.690;23.356;2022-07-12T07:44:53;1.40;;;1.20;;
36391;SDS011;22639;42.690;23.356;2022-07-12T07:47:18;1.23;;;1.10;;
36391;SDS011;22639;42.690;23.356;2022-07-12T07:49:44;3.95;;;1.33;;
36391;SDS011;22639;42.690;23.356;2022-07-12T07:52:09;2.15;;;1.95;;
36391;SDS011;22639;42.690;23.356;2022-07-12T07:54:34;3.28;;;1.40;;
36391;SDS011;22639;42.690;23.356;2022-07-12T07:57:00;1.48;;;1.38;;
36391;SDS011;22639;42.690;23.356;2022-07-12T07:59:25;3.80;;;1.90;;
36391;SDS011;22639;42.690;23.356;2022-07-12T08:01:51;2.97;;;2.13;;
36391;SDS011;22639;42.690;23.356;2022-07-12T08:04:19;1.73;;;1.35;;
36391;SDS011;22639;42.690;23.356;2022-07-12T08:06:46;5.30;;;2.10;;
36391;SDS011;22639;42.690;23.356;2022-07-12T08:09:13;3.15;;;1.80;;
36391;SDS011;22639;42.690;23.356;2022-07-12T08:11:39;2.15;;;1.30;;
36391;SDS011;22639;42.690;23.356;2022-07-12T08:14:05;3.92;;;2.20;;
36391;SDS011;22639;42.690;23.356;2022-07-12T08:16:32;7.22;;;2.85;;
36391;SDS011;22639;42.690;23.356;2022-07-12T08:18:57;4.75;;;1.70;;
36391;SDS011;22639;42.690;23.356;2022-07-12T08:21:23;1.35;;;1.00;;
36391;SDS011;22639;42.690;23.356;2022-07-12T08:23:49;2.92;;;1.25;;
36391;SDS011;22639;42.690;23.356;2022-07-12T08:26:15;1.63;;;1.05;;
36391;SDS011;22639;42.690;23.356;2022-07-12T08:28:41;1.55;;;1.15;;
36391;SDS011;22639;42.690;23.356;2022-07-12T08:31:07;0.98;;;0.98;;
36391;SDS011;22639;42.690;23.356;2022-07-12T08:33:32;2.90;;;1.20;;
36391;SDS011;22639;42.690;23.356;2022-07-12T08:35:58;6.85;;;2.40;;
36391;SDS011;22639;42.690;23.356;2022-07-12T08:38:23;3.33;;;1.40;;
36391;SDS011;22639;42.690;23.356;2022-07-12T08:40:49;3.45;;;1.85;;
36391;SDS011;22639;42.690;23.356;2022-07-12T08:43:14;1.40;;;1.10;;
36391;SDS011;22639;42.690;23.356;2022-07-12T08:45:40;5.10;;;4.03;;
36391;SDS011;22639;42.690;23.356;2022-07-12T08:48:08;3.83;;;1.25;;
36391;SDS011;22639;42.690;23.356;2022-07-12T08:50:33;1.77;;;1.42;;
36391;SDS011;22639;42.690;23.356;2022-07-12T08:52:59;1.85;;;1.42;;
36391;SDS011;22639;42.690;23.356;2022-07-12T08:55:29;1.20;;;1.10;;
36391;SDS011;22639;42.690;23.356;2022-07-12T08:57:59;1.25;;;1.00;;
36391;SDS011;22639;42.690;23.356;2022-07-12T09:00:27;3.55;;;2.95;;
36391;SDS011;22639;42.690;23.356;2022-07-12T09:02:55;2.95;;;2.13;;
36391;SDS011;22639;42.690;23.356;2022-07-12T09:05:29;3.40;;;1.20;;
36391;SDS011;22639;42.690;23.356;2022-07-12T09:08:04;2.40;;;1.20;;
36391;SDS011;22639;42.690;23.356;2022-07-12T09:10:30;4.13;;;1.20;;
36391;SDS011;22639;42.690;23.356;2022-07-12T09:12:58;2.88;;;1.40;;
36391;SDS011;22639;42.690;23.356;2022-07-12T09:15:24;2.42;;;2.00;;
36391;SDS011;22639;42.690;23.356;2022-07-12T09:17:56;0.95;;;0.90;;
36391;SDS011;22639;42.690;23.356;2022-07-12T09:20:27;2.17;;;1.17;;
36391;SDS011;22639;42.690;23.356;2022-07-12T09:22:59;1.75;;;1.65;;
36391;SDS011;22639;42.690;23.356;2022-07-12T09:25:28;2.53;;;1.50;;
36391;SDS011;22639;42.690;23.356;2022-07-12T09:27:54;1.63;;;1.52;;
36391;SDS011;22639;42.690;23.356;2022-07-12T09:30:24;1.65;;;1.55;;
36391;SDS011;22639;42.690;23.356;2022-07-12T09:32:51;1.63;;;1.20;;
36391;SDS011;22639;42.690;23.356;2022-07-12T09:35:57;2.55;;;1.42;;
36391;SDS011;22639;42.690;23.356;2022-07-12T09:38:35;3.60;;;1.40;;
36391;SDS011;22639;42.690;23.356;2022-07-12T09:41:10;1.80;;;1.20;;
36391;SDS011;22639;42.690;23.356;2022-07-12T09:43:41;1.20;;;0.98;;
36391;SDS011;22639;42.690;23.356;2022-07-12T09:46:07;1.25;;;1.02;;
36391;SDS011;22639;42.690;23.356;2022-07-12T09:48:33;1.58;;;1.10;;
36391;SDS011;22639;42.690;23.356;2022-07-12T09:50:59;1.40;;;0.93;;
36391;SDS011;22639;42.690;23.356;2022-07-12T09:53:28;3.83;;;2.40;;
36391;SDS011;22639;42.690;23.356;2022-07-12T09:55:54;1.88;;;1.02;;
36391;SDS011;22639;42.690;23.356;2022-07-12T09:58:26;3.03;;;1.40;;
36391;SDS011;22639;42.690;23.356;2022-07-12T10:00:55;6.30;;;1.42;;
36391;SDS011;22639;42.690;23.356;2022-07-12T10:03:28;4.68;;;1.20;;
36391;SDS011;22639;42.690;23.356;2022-07-12T10:05:56;2.58;;;1.10;;
36391;SDS011;22639;42.690;23.356;2022-07-12T10:08:27;2.78;;;1.30;;
36391;SDS011;22639;42.690;23.356;2022-07-12T10:10:53;3.40;;;1.40;;
36391;SDS011;22639;42.690;23.356;2022-07-12T10:13:19;1.80;;;1.40;;
36391;SDS011;22639;42.690;23.356;2022-07-12T10:15:47;2.88;;;1.20;;
36391;SDS011;22639;42.690;23.356;2022-07-12T10:18:15;3.45;;;1.27;;
36391;SDS011;22639;42.690;23.356;2022-07-12T10:20:47;0.90;;;0.90;;
36391;SDS011;22639;42.690;23.356;2022-07-12T10:25:50;1.50;;;1.08;;
36391;SDS011;22639;42.690;23.356;2022-07-12T10:28:16;1.90;;;1.13;;
36391;SDS011;22639;42.690;23.356;2022-07-12T10:30:46;2.95;;;1.45;;
36391;SDS011;22639;42.690;23.356;2022-07-12T10:33:19;1.70;;;0.90;;
36391;SDS011;22639;42.690;23.356;2022-07-12T10:36:03;0.55;;;0.50;;
36391;SDS011;22639;42.690;23.356;2022-07-12T10:38:33;0.80;;;0.80;;
36391;SDS011;22639;42.690;23.356;2022-07-12T10:43:44;1.00;;;0.88;;
36391;SDS011;22639;42.690;23.356;2022-07-12T10:46:29;1.50;;;0.93;;
36391;SDS011;22639;42.690;23.356;2022-07-12T10:54:39;1.35;;;0.85;;
36391;SDS011;22639;42.690;23.356;2022-07-12T10:57:06;1.70;;;1.30;;
36391;SDS011;22639;42.690;23.356;2022-07-12T10:59:34;1.30;;;1.00;;
36391;SDS011;22639;42.690;23.356;2022-07-12T11:02:01;1.73;;;1.63;;
36391;SDS011;22639;42.690;23.356;2022-07-12T11:04:28;1.85;;;1.17;;
36391;SDS011;22639;42.690;23.356;2022-07-12T11:06:55;2.38;;;0.90;;
36391;SDS011;22639;42.690;23.356;2022-07-12T11:09:23;2.22;;;1.13;;
36391;SDS011;22639;42.690;23.356;2022-07-12T11:11:49;2.78;;;2.28;;
36391;SDS011;22639;42.690;23.356;2022-07-12T11:14:28;1.33;;;1.20;;
36391;SDS011;22639;42.690;23.356;2022-07-12T11:16:55;1.10;;;1.00;;
36391;SDS011;22639;42.690;23.356;2022-07-12T11:19:26;3.17;;;1.35;;
36391;SDS011;22639;42.690;23.356;2022-07-12T11:21:53;1.25;;;1.10;;
36391;SDS011;22639;42.690;23.356;2022-07-12T11:26:49;1.50;;;1.40;;
36391;SDS011;22639;42.690;23.356;2022-07-12T11:29:15;1.40;;;1.30;;
36391;SDS011;22639;42.690;23.356;2022-07-12T11:31:41;1.25;;;1.15;;
36391;SDS011;22639;42.690;23.356;2022-07-12T11:34:09;2.05;;;1.13;;
36391;SDS011;22639;42.690;23.356;2022-07-12T11:36:45;1.00;;;0.90;;
36391;SDS011;22639;42.690;23.356;2022-07-12T11:39:11;1.92;;;1.23;;
36391;SDS011;22639;42.690;23.356;2022-07-12T11:41:36;2.40;;;1.27;;
36391;SDS011;22639;42.690;23.356;2022-07-12T11:44:02;1.58;;;1.25;;
36391;SDS011;22639;42.690;23.356;2022-07-12T11:46:27;4.13;;;1.17;;
36391;SDS011;22639;42.690;23.356;2022-07-12T11:48:53;0.85;;;0.80;;
36391;SDS011;22639;42.690;23.356;2022-07-12T11:51:18;1.40;;;1.30;;
36391;SDS011;22639;42.690;23.356;2022-07-12T11:53:44;1.65;;;1.55;;
36391;SDS011;22639;42.690;23.356;2022-07-12T11:56:28;1.27;;;1.13;;
36391;SDS011;22639;42.690;23.356;2022-07-12T11:58:55;0.90;;;0.90;;
36391;SDS011;22639;42.690;23.356;2022-07-12T12:01:22;0.95;;;0.95;;
36391;SDS011;22639;42.690;23.356;2022-07-12T12:03:47;1.80;;;1.10;;
36391;SDS011;22639;42.690;23.356;2022-07-12T12:06:14;2.70;;;1.13;;
36391;SDS011;22639;42.690;23.356;2022-07-12T12:08:40;3.22;;;1.33;;
36391;SDS011;22639;42.690;23.356;2022-07-12T12:11:06;1.20;;;1.10;;
36391;SDS011;22639;42.690;23.356;2022-07-12T12:13:31;1.65;;;0.80;;
36391;SDS011;22639;42.690;23.356;2022-07-12T12:15:58;1.02;;;1.02;;
36391;SDS011;22639;42.690;23.356;2022-07-12T12:18:37;1.17;;;0.80;;
36391;SDS011;22639;42.690;23.356;2022-07-12T12:21:07;1.02;;;0.85;;
36391;SDS011;22639;42.690;23.356;2022-07-12T12:23:34;3.97;;;1.65;;
36391;SDS011;22639;42.690;23.356;2022-07-12T12:26:14;3.72;;;1.30;;
36391;SDS011;22639;42.690;23.356;2022-07-12T12:28:49;1.00;;;1.00;;
36391;SDS011;22639;42.690;23.356;2022-07-12T12:31:18;1.50;;;1.40;;
36391;SDS011;22639;42.690;23.356;2022-07-12T12:33:45;3.47;;;1.23;;
36391;SDS011;22639;42.690;23.356;2022-07-12T12:38:52;1.48;;;1.38;;
36391;SDS011;22639;42.690;23.356;2022-07-12T12:41:19;1.52;;;1.42;;
36391;SDS011;22639;42.690;23.356;2022-07-12T12:43:55;4.50;;;1.50;;
36391;SDS011;22639;42.690;23.356;2022-07-12T12:46:44;2.50;;;1.30;;
36391;SDS011;22639;42.690;23.356;2022-07-12T12:49:10;0.80;;;0.80;;
36391;SDS011;22639;42.690;23.356;2022-07-12T12:51:55;3.80;;;1.40;;
36391;SDS011;22639;42.690;23.356;2022-07-12T12:54:35;2.05;;;1.40;;
36391;SDS011;22639;42.690;23.356;2022-07-12T12:57:02;1.67;;;1.20;;
36391;SDS011;22639;42.690;23.356;2022-07-12T12:59:28;2.65;;;1.00;;
36391;SDS011;22639;42.690;23.356;2022-07-12T13:01:53;2.45;;;1.20;;
36391;SDS011;22639;42.690;23.356;2022-07-12T13:04:19;1.02;;;0.98;;
36391;SDS011;22639;42.690;23.356;2022-07-12T13:06:44;1.30;;;1.20;;
36391;SDS011;22639;42.690;23.356;2022-07-12T13:09:10;2.55;;;1.65;;
36391;SDS011;22639;42.690;23.356;2022-07-12T13:11:35;1.92;;;1.73;;
36391;SDS011;22639;42.690;23.356;2022-07-12T13:14:00;1.27;;;1.17;;
36391;SDS011;22639;42.690;23.356;2022-07-12T13:16:26;1.58;;;1.30;;
36391;SDS011;22639;42.690;23.356;2022-07-12T13:18:51;1.50;;;1.40;;
36391;SDS011;22639;42.690;23.356;2022-07-12T13:21:17;1.50;;;1.40;;
36391;SDS011;22639;42.690;23.356;2022-07-12T13:23:42;2.05;;;1.90;;
36391;SDS011;22639;42.690;23.356;2022-07-12T13:26:09;1.77;;;1.13;;
36391;SDS011;22639;42.690;23.356;2022-07-12T13:28:34;1.27;;;1.17;;
36391;SDS011;22639;42.690;23.356;2022-07-12T13:31:00;1.27;;;1.02;;
36391;SDS011;22639;42.690;23.356;2022-07-12T13:33:25;1.35;;;1.25;;
36391;SDS011;22639;42.690;23.356;2022-07-12T13:35:51;1.80;;;1.65;;
36391;SDS011;22639;42.690;23.356;2022-07-12T13:38:16;1.02;;;0.90;;
36391;SDS011;22639;42.690;23.356;2022-07-12T13:40:42;1.40;;;1.10;;
36391;SDS011;22639;42.690;23.356;2022-07-12T13:43:07;1.55;;;1.45;;
36391;SDS011;22639;42.690;23.356;2022-07-12T13:45:32;2.55;;;1.08;;
36391;SDS011;22639;42.690;23.356;2022-07-12T13:48:16;3.00;;;1.55;;
36391;SDS011;22639;42.690;23.356;2022-07-12T13:50:43;1.55;;;1.45;;
36391;SDS011;22639;42.690;23.356;2022-07-12T13:53:09;1.98;;;1.40;;
36391;SDS011;22639;42.690;23.356;2022-07-12T13:55:35;2.47;;;1.23;;
36391;SDS011;22639;42.690;23.356;2022-07-12T13:58:02;2.67;;;1.38;;
36391;SDS011;22639;42.690;23.356;2022-07-12T14:00:31;1.10;;;0.90;;
36391;SDS011;22639;42.690;23.356;2022-07-12T14:02:56;1.27;;;1.17;;
36391;SDS011;22639;42.690;23.356;2022-07-12T14:05:22;2.15;;;1.10;;
36391;SDS011;22639;42.690;23.356;2022-07-12T14:07:47;2.72;;;1.10;;
36391;SDS011;22639;42.690;23.356;2022-07-12T14:10:13;1.50;;;1.40;;
36391;SDS011;22639;42.690;23.356;2022-07-12T14:12:39;1.42;;;1.20;;
36391;SDS011;22639;42.690;23.356;2022-07-12T14:15:05;1.65;;;1.13;;
36391;SDS011;22639;42.690;23.356;2022-07-12T14:20:08;3.90;;;1.30;;
36391;SDS011;22639;42.690;23.356;2022-07-12T14:22:34;1.70;;;1.35;;
36391;SDS011;22639;42.690;23.356;2022-07-12T14:25:01;2.30;;;1.23;;
36391;SDS011;22639;42.690;23.356;2022-07-12T14:27:28;2.70;;;1.60;;
36391;SDS011;22639;42.690;23.356;2022-07-12T14:29:54;1.25;;;1.15;;
36391;SDS011;22639;42.690;23.356;2022-07-12T14:32:20;1.00;;;0.90;;
36391;SDS011;22639;42.690;23.356;2022-07-12T14:34:45;1.45;;;1.10;;
36391;SDS011;22639;42.690;23.356;2022-07-12T14:37:11;1.08;;;0.95;;
36391;SDS011;22639;42.690;23.356;2022-07-12T14:39:36;1.50;;;1.40;;
36391;SDS011;22639;42.690;23.356;2022-07-12T14:42:03;1.42;;;1.23;;
36391;SDS011;22639;42.690;23.356;2022-07-12T14:44:30;1.52;;;1.20;;
36391;SDS011;22639;42.690;23.356;2022-07-12T14:46:55;1.85;;;1.30;;
36391;SDS011;22639;42.690;23.356;2022-07-12T14:49:21;1.38;;;1.08;;
36391;SDS011;22639;42.690;23.356;2022-07-12T14:51:47;1.35;;;1.17;;